Time;durP1;ratioP1;P1;durP2;ratioP2;P2;SDS_P1;SDS_P2;PMS_P1;PMS_P2;Temp;Humidity;BMP_temperature;BMP_pressure;BME280_temperature;BME280_humidity;BME280_pressure;Samples;Min_cycle;Max_cycle;Signal;HPM_P1;HPM_P2
2022/06/19 00:00:02;;;;;;;;;;;16.20;92.50;;;;;;5094169;28;39411;-45
2022/06/19 00:02:29;;;;;;;;;;;16.20;93.00;;;;;;5093927;27;38035;-47
2022/06/19 00:04:56;;;;;;;;;;;16.10;93.20;;;;;;5094174;27;37257;-46
2022/06/19 00:07:24;;;;;;;;;;;16.10;92.80;;;;;;5093526;27;37817;-50
2022/06/19 00:09:52;;;;;;;;;;;16.10;93.00;;;;;;5093342;27;38008;-47
2022/06/19 00:12:19;;;;;;;;;;;16.10;93.20;;;;;;5092851;27;37158;-47
2022/06/19 00:14:46;;;;;;;;;;;16.10;93.80;;;;;;5092970;27;35927;-46
2022/06/19 00:17:15;;;;;;;;;;;16.10;93.50;;;;;;5093534;27;37817;-46
2022/06/19 00:19:43;;;;;;;;;;;16.10;92.50;;;;;;5093330;27;38615;-47
2022/06/19 00:22:10;;;;;;;;;;;16.10;92.50;;;;;;5093319;28;35891;-47
2022/06/19 00:24:37;;;;;;;;;;;16.10;93.10;;;;;;5093259;27;36525;-46
2022/06/19 00:27:06;;;;;;;;;;;16.10;93.20;;;;;;5093069;27;38355;-48
2022/06/19 00:29:33;;;;;;;;;;;16.10;93.50;;;;;;5093337;28;39073;-46
2022/06/19 00:32:04;;;;;;;;;;;16.10;94.00;;;;;;5092667;28;35972;-46
2022/06/19 00:34:31;;;;;;;;;;;16.10;94.20;;;;;;5092742;27;36176;-48
2022/06/19 00:37:01;;;;;;;;;;;16.10;93.80;;;;;;5093351;27;38816;-46
2022/06/19 00:39:28;;;;;;;;;;;16.00;93.50;;;;;;5093177;27;37986;-46
2022/06/19 00:41:55;;;;;;;;;;;16.00;94.20;;;;;;5092973;27;37937;-49
2022/06/19 00:44:23;;;;;;;;;;;16.10;94.30;;;;;;5093274;27;37083;-49
2022/06/19 00:46:52;;;;;;;;;;;16.10;94.30;;;;;;5093372;27;37718;-48
2022/06/19 00:49:20;;;;;;;;;;;16.00;94.00;;;;;;5093223;27;38081;-47
2022/06/19 00:51:47;;;;;;;;;;;16.10;94.30;;;;;;5093518;28;36683;-48
2022/06/19 00:54:16;;;;;;;;;;;16.00;94.60;;;;;;5093101;27;36330;-48
2022/06/19 00:56:43;;;;;;;;;;;15.90;94.90;;;;;;5092485;27;38524;-51
2022/06/19 00:59:11;;;;;;;;;;;15.90;95.20;;;;;;5092466;27;38371;-45
2022/06/19 01:01:39;;;;;;;;;;;15.90;95.50;;;;;;5095468;27;37203;-49
2022/06/19 01:04:10;;;;;;;;;;;15.80;95.90;;;;;;5095915;27;36299;-48
2022/06/19 01:06:37;;;;;;;;;;;15.80;96.30;;;;;;5096023;27;38337;-46
2022/06/19 01:09:04;;;;;;;;;;;15.80;96.70;;;;;;5095408;27;36803;-49
2022/06/19 01:11:33;;;;;;;;;;;15.70;96.90;;;;;;5096495;27;38125;-46
2022/06/19 01:14:02;;;;;;;;;;;15.70;97.00;;;;;;5095491;27;36085;-47
2022/06/19 01:16:29;;;;;;;;;;;15.70;97.50;;;;;;5096340;27;37987;-49
2022/06/19 01:18:59;;;;;;;;;;;15.80;97.60;;;;;;5095989;27;39323;-47
2022/06/19 01:21:29;;;;;;;;;;;15.70;97.90;;;;;;5095690;27;38102;-49
2022/06/19 01:24:01;;;;;;;;;;;15.80;97.90;;;;;;5096038;27;37092;-46
2022/06/19 01:26:32;;;;;;;;;;;15.80;97.90;;;;;;5096125;28;37740;-46
2022/06/19 01:28:58;;;;;;;;;;;15.80;97.90;;;;;;5095802;27;39447;-48
2022/06/19 01:31:27;;;;;;;;;;;15.90;97.80;;;;;;5095305;27;36988;-48
2022/06/19 01:33:58;;;;;;;;;;;15.90;97.90;;;;;;5095469;27;37052;-46
2022/06/19 01:36:26;;;;;;;;;;;15.90;97.90;;;;;;5095639;27;37672;-47
2022/06/19 01:38:54;;;;;;;;;;;15.80;97.70;;;;;;5095142;27;37834;-48
2022/06/19 01:41:23;;;;;;;;;;;15.80;97.70;;;;;;5094961;27;36810;-47
2022/06/19 01:43:52;;;;;;;;;;;15.80;98.40;;;;;;5096041;27;36973;-46
2022/06/19 01:46:19;;;;;;;;;;;15.80;98.90;;;;;;5095410;27;37612;-48
2022/06/19 01:48:47;;;;;;;;;;;15.70;99.90;;;;;;5095722;28;38718;-46
2022/06/19 01:51:14;;;;;;;;;;;15.70;99.90;;;;;;5095405;27;37334;-47
2022/06/19 01:53:43;;;;;;;;;;;15.70;99.90;;;;;;5095928;27;37228;-48
2022/06/19 01:56:11;;;;;;;;;;;15.60;99.90;;;;;;5095792;28;37922;-50
2022/06/19 01:58:40;;;;;;;;;;;15.60;99.90;;;;;;5094902;27;38285;-46
2022/06/19 02:01:11;;;;;;;;;;;15.50;99.90;;;;;;5096141;27;30687;-47
2022/06/19 02:03:40;;;;;;;;;;;15.50;99.90;;;;;;5095307;27;36933;-45
2022/06/19 02:06:09;;;;;;;;;;;15.40;99.90;;;;;;5094905;27;37692;-49
2022/06/19 02:08:36;;;;;;;;;;;15.40;99.90;;;;;;5095207;27;38735;-45
2022/06/19 02:11:05;;;;;;;;;;;15.40;99.90;;;;;;5095008;27;38059;-49
2022/06/19 02:13:34;;;;;;;;;;;15.40;99.90;;;;;;5095833;27;36988;-47
2022/06/19 02:16:03;;;;;;;;;;;15.40;99.90;;;;;;5094742;27;37416;-48
2022/06/19 02:18:32;;;;;;;;;;;15.50;99.90;;;;;;5094945;27;38252;-46
2022/06/19 02:21:00;;;;;;;;;;;15.40;99.90;;;;;;5094243;28;36080;-47
2022/06/19 02:23:32;;;;;;;;;;;15.50;99.90;;;;;;5093323;27;36331;-47
2022/06/19 02:25:59;;;;;;;;;;;15.50;99.90;;;;;;5094369;28;37498;-45
2022/06/19 02:28:26;;;;;;;;;;;15.50;99.90;;;;;;5092673;27;38572;-47
2022/06/19 02:30:54;;;;;;;;;;;15.50;99.90;;;;;;5094889;27;35905;-49
2022/06/19 02:33:24;;;;;;;;;;;15.50;99.90;;;;;;5094659;27;36236;-46
2022/06/19 02:35:52;;;;;;;;;;;15.40;99.90;;;;;;5094725;27;38252;-48
2022/06/19 02:38:20;;;;;;;;;;;15.40;99.90;;;;;;5094748;28;38561;-46
2022/06/19 02:40:51;;;;;;;;;;;15.30;99.90;;;;;;5094426;28;37630;-47
2022/06/19 02:43:19;;;;;;;;;;;15.40;99.90;;;;;;5094229;27;37280;-47
2022/06/19 02:45:46;;;;;;;;;;;15.30;99.90;;;;;;5094315;27;39248;-46
2022/06/19 02:48:19;;;;;;;;;;;15.30;99.90;;;;;;5094709;27;37727;-48
2022/06/19 02:50:46;;;;;;;;;;;15.40;99.90;;;;;;5094205;27;37027;-47
2022/06/19 02:53:14;;;;;;;;;;;15.40;99.90;;;;;;5094189;28;36219;-46
2022/06/19 02:55:41;;;;;;;;;;;15.40;99.80;;;;;;5093828;27;37469;-46
2022/06/19 02:58:08;;;;;;;;;;;15.30;99.70;;;;;;5094142;27;38016;-46
2022/06/19 03:00:36;;;;;;;;;;;15.30;99.50;;;;;;5093780;27;38353;-45
2022/06/19 03:03:05;;;;;;;;;;;15.30;99.40;;;;;;5094398;27;36310;-45
2022/06/19 03:05:33;;;;;;;;;;;15.20;99.90;;;;;;5094153;27;37123;-47
2022/06/19 03:08:00;;;;;;;;;;;15.20;99.50;;;;;;5094241;27;38635;-50
2022/06/19 03:10:30;;;;;;;;;;;15.30;99.60;;;;;;5093346;27;37227;-45
2022/06/19 03:12:58;;;;;;;;;;;15.20;99.90;;;;;;5094114;28;35232;-50
2022/06/19 03:15:25;;;;;;;;;;;15.30;99.90;;;;;;5093718;27;38588;-45
2022/06/19 03:17:52;;;;;;;;;;;15.30;99.90;;;;;;5093864;27;37991;-48
2022/06/19 03:20:22;;;;;;;;;;;15.40;99.90;;;;;;5093973;27;36985;-45
2022/06/19 03:22:49;;;;;;;;;;;15.40;99.90;;;;;;5093350;27;37570;-47
2022/06/19 03:25:16;;;;;;;;;;;15.50;99.90;;;;;;5094068;27;36812;-47
2022/06/19 03:27:45;;;;;;;;;;;15.50;99.90;;;;;;5093417;28;38532;-46
2022/06/19 03:30:13;;;;;;;;;;;15.60;99.90;;;;;;5094101;27;36985;-47
2022/06/19 03:32:40;;;;;;;;;;;15.60;99.90;;;;;;5093753;28;36730;-50
2022/06/19 03:35:08;;;;;;;;;;;15.60;99.10;;;;;;5093395;28;36575;-50
2022/06/19 03:37:35;;;;;;;;;;;15.60;99.20;;;;;;5093670;27;38075;-46
2022/06/19 03:40:02;;;;;;;;;;;15.60;99.90;;;;;;5093726;27;36972;-47
2022/06/19 03:42:29;;;;;;;;;;;15.50;99.90;;;;;;5093673;27;37602;-47
2022/06/19 03:44:58;;;;;;;;;;;15.60;99.90;;;;;;5093870;27;38429;-46
2022/06/19 03:47:26;;;;;;;;;;;15.50;99.90;;;;;;5093344;27;39131;-47
2022/06/19 03:49:53;;;;;;;;;;;15.40;99.90;;;;;;5093761;27;37352;-45
2022/06/19 03:52:20;;;;;;;;;;;15.40;99.90;;;;;;5094220;27;34490;-46
2022/06/19 03:54:47;;;;;;;;;;;15.30;99.90;;;;;;5093631;27;37404;-45
2022/06/19 03:57:15;;;;;;;;;;;15.30;99.90;;;;;;5093829;27;38300;-46
2022/06/19 03:59:42;;;;;;;;;;;15.30;99.90;;;;;;5093287;27;37976;-45
2022/06/19 04:02:11;;;;;;;;;;;15.20;99.90;;;;;;5093416;27;37030;-46
2022/06/19 04:04:39;;;;;;;;;;;15.20;99.90;;;;;;5093394;27;38598;-46
2022/06/19 04:07:06;;;;;;;;;;;15.20;99.90;;;;;;5092606;27;39428;-47
2022/06/19 04:09:34;;;;;;;;;;;15.20;99.90;;;;;;5093096;27;38137;-48
2022/06/19 04:12:01;;;;;;;;;;;15.10;99.90;;;;;;5093353;27;36978;-46
2022/06/19 04:14:28;;;;;;;;;;;15.10;99.90;;;;;;5093216;28;36704;-47
2022/06/19 04:16:55;;;;;;;;;;;15.10;99.90;;;;;;5093025;27;38608;-46
2022/06/19 04:19:24;;;;;;;;;;;15.00;99.90;;;;;;5093171;27;38082;-46
2022/06/19 04:21:51;;;;;;;;;;;15.00;99.90;;;;;;5092563;27;36739;-46
2022/06/19 04:24:19;;;;;;;;;;;15.00;99.90;;;;;;5093000;27;37967;-47
2022/06/19 04:26:46;;;;;;;;;;;14.90;99.90;;;;;;5093364;28;39320;-47
2022/06/19 04:29:13;;;;;;;;;;;14.80;99.90;;;;;;5093383;27;36917;-46
2022/06/19 04:31:41;;;;;;;;;;;14.80;99.90;;;;;;5093360;27;37053;-47
2022/06/19 04:34:09;;;;;;;;;;;14.60;99.90;;;;;;5092861;27;37643;-47
2022/06/19 04:36:37;;;;;;;;;;;14.50;99.90;;;;;;5095533;28;38157;-45
2022/06/19 04:39:05;;;;;;;;;;;14.50;99.90;;;;;;5096033;27;37446;-48
2022/06/19 04:41:36;;;;;;;;;;;14.50;99.90;;;;;;5096372;27;35239;-46
2022/06/19 04:44:03;;;;;;;;;;;14.60;99.90;;;;;;5096451;27;37731;-45
2022/06/19 04:46:30;;;;;;;;;;;14.60;99.90;;;;;;5095733;27;36886;-46
2022/06/19 04:48:58;;;;;;;;;;;14.60;99.90;;;;;;5095851;27;37711;-48
2022/06/19 04:51:25;;;;;;;;;;;14.60;99.90;;;;;;5096202;27;36955;-48
2022/06/19 04:53:54;;;;;;;;;;;14.60;99.90;;;;;;5096101;27;37768;-49
2022/06/19 04:56:21;;;;;;;;;;;14.50;99.90;;;;;;5096200;27;38108;-47
2022/06/19 04:58:48;;;;;;;;;;;14.50;99.90;;;;;;5096054;27;35961;-48
2022/06/19 05:01:20;;;;;;;;;;;14.40;99.90;;;;;;5095721;27;37701;-46
2022/06/19 05:03:47;;;;;;;;;;;14.30;99.90;;;;;;5095678;27;37578;-49
2022/06/19 05:06:14;;;;;;;;;;;14.30;99.90;;;;;;5095873;27;36828;-46
2022/06/19 05:08:41;;;;;;;;;;;14.20;99.90;;;;;;5095792;27;37508;-45
2022/06/19 05:11:10;;;;;;;;;;;14.20;99.90;;;;;;5096212;27;35120;-46
2022/06/19 05:13:37;;;;;;;;;;;14.20;99.90;;;;;;5095790;27;39029;-47
2022/06/19 05:16:05;;;;;;;;;;;14.20;99.90;;;;;;5095950;27;37852;-45
2022/06/19 05:18:34;;;;;;;;;;;14.30;99.90;;;;;;5096197;27;38012;-46
2022/06/19 05:21:02;;;;;;;;;;;14.30;99.90;;;;;;5095311;27;37299;-48
2022/06/19 05:23:29;;;;;;;;;;;14.30;99.90;;;;;;5095178;27;37766;-48
2022/06/19 05:26:01;;;;;;;;;;;14.30;99.90;;;;;;5095809;27;38409;-45
2022/06/19 05:28:30;;;;;;;;;;;14.40;99.90;;;;;;5095399;27;37116;-49
2022/06/19 05:30:58;;;;;;;;;;;14.40;99.90;;;;;;5096196;27;37143;-46
2022/06/19 05:33:25;;;;;;;;;;;14.50;99.90;;;;;;5096194;27;39112;-47
2022/06/19 05:35:52;;;;;;;;;;;14.60;99.90;;;;;;5095179;27;36844;-48
2022/06/19 05:38:19;;;;;;;;;;;14.60;99.90;;;;;;5095680;27;38646;-45
2022/06/19 05:40:47;;;;;;;;;;;14.60;99.90;;;;;;5095962;27;35284;-50
2022/06/19 05:43:14;;;;;;;;;;;14.50;99.90;;;;;;5095291;27;38297;-47
2022/06/19 05:45:49;;;;;;;;;;;14.50;99.90;;;;;;5095152;27;37735;-46
2022/06/19 05:48:16;;;;;;;;;;;14.40;99.90;;;;;;5095615;27;37455;-46
2022/06/19 05:50:43;;;;;;;;;;;14.30;99.90;;;;;;5096102;27;35183;-46
2022/06/19 05:53:10;;;;;;;;;;;14.30;99.90;;;;;;5095256;27;37579;-46
2022/06/19 05:55:37;;;;;;;;;;;14.30;99.90;;;;;;5095847;27;36585;-47
2022/06/19 05:58:04;;;;;;;;;;;14.30;99.90;;;;;;5095565;27;36873;-49
2022/06/19 06:00:31;;;;;;;;;;;14.30;99.90;;;;;;5094640;27;35733;-45
2022/06/19 06:02:59;;;;;;;;;;;14.30;99.90;;;;;;5095542;27;38053;-47
2022/06/19 06:05:27;;;;;;;;;;;14.30;99.90;;;;;;5095674;27;37852;-49
2022/06/19 06:07:54;;;;;;;;;;;14.30;99.90;;;;;;5095074;27;37716;-45
2022/06/19 06:10:22;;;;;;;;;;;14.30;99.90;;;;;;5094736;27;36258;-48
2022/06/19 06:12:49;;;;;;;;;;;14.40;99.90;;;;;;5094315;28;38319;-46
2022/06/19 06:15:16;;;;;;;;;;;14.40;99.90;;;;;;5095335;27;36550;-47
2022/06/19 06:17:43;;;;;;;;;;;14.40;99.90;;;;;;5094524;27;37214;-46
2022/06/19 06:20:12;;;;;;;;;;;14.40;99.90;;;;;;5095177;28;35186;-47
2022/06/19 06:22:39;;;;;;;;;;;14.40;99.90;;;;;;5094704;27;37672;-46
2022/06/19 06:25:06;;;;;;;;;;;14.40;99.90;;;;;;5094412;27;38642;-45
2022/06/19 06:27:33;;;;;;;;;;;14.40;99.90;;;;;;5094670;28;37376;-45
2022/06/19 06:30:00;;;;;;;;;;;14.50;99.90;;;;;;5095250;27;36226;-50
2022/06/19 06:32:27;;;;;;;;;;;14.50;99.90;;;;;;5093762;27;38406;-47
2022/06/19 06:34:54;;;;;;;;;;;14.60;99.90;;;;;;5094512;27;38651;-48
2022/06/19 06:37:23;;;;;;;;;;;14.60;99.90;;;;;;5094173;27;37854;-46
2022/06/19 06:39:50;;;;;;;;;;;14.50;99.90;;;;;;5094413;28;36772;-47
2022/06/19 06:42:17;;;;;;;;;;;14.60;99.90;;;;;;5094672;27;37468;-47
2022/06/19 06:44:44;;;;;;;;;;;14.60;99.90;;;;;;5094489;27;38020;-47
2022/06/19 06:47:11;;;;;;;;;;;14.70;99.90;;;;;;5094132;27;35817;-47
2022/06/19 06:49:38;;;;;;;;;;;14.70;99.90;;;;;;5094426;27;36112;-47
2022/06/19 06:52:08;;;;;;;;;;;14.70;99.90;;;;;;5094292;27;36454;-45
2022/06/19 06:54:37;;;;;;;;;;;14.70;99.90;;;;;;5093946;27;37694;-46
2022/06/19 06:57:05;;;;;;;;;;;14.70;99.90;;;;;;5094378;27;37486;-50
2022/06/19 06:59:32;;;;;;;;;;;14.80;99.90;;;;;;5092810;27;36152;-46
2022/06/19 07:01:59;;;;;;;;;;;14.80;99.90;;;;;;5093930;27;36573;-48
2022/06/19 07:04:27;;;;;;;;;;;14.80;99.90;;;;;;5094496;27;38599;-48
2022/06/19 07:06:54;;;;;;;;;;;14.80;99.90;;;;;;5093989;28;37898;-47
2022/06/19 07:09:21;;;;;;;;;;;14.80;99.90;;;;;;5093717;27;35765;-50
2022/06/19 07:11:49;;;;;;;;;;;14.80;99.90;;;;;;5093670;27;38859;-47
2022/06/19 07:14:17;;;;;;;;;;;14.80;99.90;;;;;;5093781;27;38423;-47
2022/06/19 07:16:44;;;;;;;;;;;14.80;99.90;;;;;;5093454;27;38982;-49
2022/06/19 07:19:12;;;;;;;;;;;14.80;99.90;;;;;;5094198;27;37596;-48
2022/06/19 07:21:39;;;;;;;;;;;14.80;99.90;;;;;;5094233;27;37867;-45
2022/06/19 07:24:06;;;;;;;;;;;14.90;99.90;;;;;;5093134;28;35229;-48
2022/06/19 07:26:34;;;;;;;;;;;14.80;99.90;;;;;;5093649;27;37910;-46
2022/06/19 07:29:02;;;;;;;;;;;14.80;99.90;;;;;;5092400;27;36122;-46
2022/06/19 07:31:29;;;;;;;;;;;14.80;99.90;;;;;;5094151;28;36904;-46
2022/06/19 07:33:56;;;;;;;;;;;14.80;99.90;;;;;;5093721;27;40517;-48
2022/06/19 07:36:24;;;;;;;;;;;14.70;99.90;;;;;;5093966;27;37262;-49
2022/06/19 07:38:51;;;;;;;;;;;14.70;99.90;;;;;;5093941;27;37401;-45
2022/06/19 07:41:19;;;;;;;;;;;14.80;99.90;;;;;;5093133;27;37756;-47
2022/06/19 07:43:46;;;;;;;;;;;14.80;99.90;;;;;;5093376;27;37985;-47
2022/06/19 07:46:14;;;;;;;;;;;14.80;99.90;;;;;;5093086;27;36924;-49
2022/06/19 07:51:26;;;;;;;;;;;14.80;99.90;;;;;;5093150;28;40380;-47
2022/06/19 07:53:53;;;;;;;;;;;14.80;99.90;;;;;;5093191;27;37819;-45
2022/06/19 07:56:20;;;;;;;;;;;14.90;99.90;;;;;;5093198;27;37265;-50
2022/06/19 07:58:47;;;;;;;;;;;14.80;99.90;;;;;;5093678;27;36523;-46
2022/06/19 08:01:15;;;;;;;;;;;14.80;99.90;;;;;;5093174;27;36415;-46
2022/06/19 08:03:42;;;;;;;;;;;14.90;99.90;;;;;;5093187;27;36720;-48
2022/06/19 08:06:13;;;;;;;;;;;14.90;99.90;;;;;;5093708;27;37990;-46
2022/06/19 08:08:40;;;;;;;;;;;14.90;99.90;;;;;;5093183;27;36898;-47
2022/06/19 08:11:07;;;;;;;;;;;14.90;99.90;;;;;;5096750;27;38905;-46
2022/06/19 08:13:35;;;;;;;;;;;14.90;99.90;;;;;;5096793;27;37815;-47
2022/06/19 08:16:03;;;;;;;;;;;14.90;99.90;;;;;;5096308;27;36512;-45
2022/06/19 08:18:32;;;;;;;;;;;14.90;99.90;;;;;;5096195;28;36198;-46
2022/06/19 08:20:59;;;;;;;;;;;14.90;99.90;;;;;;5096681;27;39060;-46
2022/06/19 08:23:26;;;;;;;;;;;14.90;99.90;;;;;;5096827;27;38374;-48
2022/06/19 08:25:54;;;;;;;;;;;15.00;99.90;;;;;;5096430;27;38359;-45
2022/06/19 08:28:21;;;;;;;;;;;15.00;99.90;;;;;;5095177;27;36671;-46
2022/06/19 08:30:48;;;;;;;;;;;15.00;99.90;;;;;;5096501;27;37823;-47
2022/06/19 08:33:15;;;;;;;;;;;15.00;99.90;;;;;;5096495;27;37959;-46
2022/06/19 08:35:45;;;;;;;;;;;15.10;99.90;;;;;;5096615;27;38154;-45
2022/06/19 08:38:16;;;;;;;;;;;15.20;99.90;;;;;;5096171;27;36094;-45
2022/06/19 08:40:56;;;;;;;;;;;15.20;99.90;;;;;;5096415;27;37529;-47
2022/06/19 08:43:30;;;;;;;;;;;15.20;99.90;;;;;;5095644;27;38187;-46
2022/06/19 08:46:05;;;;;;;;;;;15.20;99.90;;;;;;5096334;27;37746;-48
2022/06/19 08:48:41;;;;;;;;;;;15.20;99.90;;;;;;5096405;27;36355;-47
2022/06/19 08:51:16;;;;;;;;;;;15.20;99.90;;;;;;5096704;27;38120;-45
2022/06/19 08:53:53;;;;;;;;;;;15.20;99.90;;;;;;5096141;27;37914;-49
2022/06/19 08:56:22;;;;;;;;;;;15.20;99.90;;;;;;5095589;27;38011;-45
2022/06/19 08:58:55;;;;;;;;;;;15.20;99.90;;;;;;5095042;27;38128;-46
2022/06/19 09:01:26;;;;;;;;;;;15.20;99.90;;;;;;5096055;27;37565;-46
2022/06/19 09:06:49;;;;;;;;;;;15.10;99.90;;;;;;5095872;28;38916;-44
2022/06/19 09:09:30;;;;;;;;;;;15.20;99.90;;;;;;5095181;27;36117;-47
2022/06/19 09:12:02;;;;;;;;;;;15.10;99.90;;;;;;5096273;28;38475;-46
2022/06/19 09:14:35;;;;;;;;;;;15.00;99.90;;;;;;5095463;27;37736;-45
2022/06/19 09:17:08;;;;;;;;;;;15.00;99.90;;;;;;5096443;27;36918;-47
2022/06/19 09:19:39;;;;;;;;;;;15.00;99.90;;;;;;5095713;27;36690;-48
2022/06/19 09:22:13;;;;;;;;;;;15.10;99.90;;;;;;5095039;27;38210;-48
2022/06/19 09:24:47;;;;;;;;;;;15.20;99.90;;;;;;5095974;27;39920;-47
2022/06/19 09:27:16;;;;;;;;;;;15.20;99.90;;;;;;5095431;28;38090;-45
2022/06/19 09:29:47;;;;;;;;;;;15.20;99.90;;;;;;5095907;27;35955;-45
2022/06/19 09:32:17;;;;;;;;;;;15.20;99.90;;;;;;5095442;27;38564;-48
2022/06/19 09:34:47;;;;;;;;;;;15.20;99.90;;;;;;5095076;27;38787;-48
2022/06/19 09:37:18;;;;;;;;;;;15.20;99.90;;;;;;5095421;28;37946;-48
2022/06/19 09:39:48;;;;;;;;;;;15.20;99.90;;;;;;5094900;27;36314;-49
2022/06/19 09:42:17;;;;;;;;;;;15.30;99.90;;;;;;5096047;27;38667;-46
2022/06/19 09:44:56;;;;;;;;;;;15.30;99.90;;;;;;5095117;27;39624;-48
2022/06/19 09:47:29;;;;;;;;;;;15.30;99.90;;;;;;5095545;27;37586;-46
2022/06/19 09:49:58;;;;;;;;;;;15.20;99.90;;;;;;5095405;27;36018;-46
2022/06/19 09:52:31;;;;;;;;;;;15.30;99.90;;;;;;5095317;28;37971;-48
2022/06/19 09:55:02;;;;;;;;;;;15.20;99.90;;;;;;5094792;27;36647;-46
2022/06/19 09:57:31;;;;;;;;;;;15.20;99.90;;;;;;5094598;27;36929;-48
2022/06/19 10:00:00;;;;;;;;;;;15.20;99.90;;;;;;5094572;27;35953;-45
2022/06/19 10:02:31;;;;;;;;;;;15.30;99.90;;;;;;5094431;27;38736;-47
2022/06/19 10:05:00;;;;;;;;;;;15.30;99.90;;;;;;5094168;27;36865;-46
2022/06/19 10:07:33;;;;;;;;;;;15.30;99.90;;;;;;5094841;27;37080;-45
2022/06/19 10:10:02;;;;;;;;;;;15.40;99.90;;;;;;5094724;27;36206;-55
2022/06/19 10:12:33;;;;;;;;;;;15.40;99.90;;;;;;5095044;27;37622;-54
2022/06/19 10:15:02;;;;;;;;;;;15.40;99.90;;;;;;5094992;27;36678;-55
2022/06/19 10:17:32;;;;;;;;;;;15.60;99.90;;;;;;5094937;27;36950;-54
2022/06/19 10:20:03;;;;;;;;;;;15.70;99.90;;;;;;5094614;27;37073;-55
2022/06/19 10:22:40;;;;;;;;;;;15.80;99.90;;;;;;5094071;28;37878;-54
2022/06/19 10:25:21;;;;;;;;;;;15.80;99.90;;;;;;5095192;27;37476;-55
2022/06/19 10:27:53;;;;;;;;;;;15.80;99.90;;;;;;5094791;27;38221;-54
2022/06/19 10:30:22;;;;;;;;;;;15.80;99.90;;;;;;5094963;27;37161;-54
2022/06/19 10:32:56;;;;;;;;;;;15.80;99.90;;;;;;5093206;28;37001;-55
2022/06/19 10:35:27;;;;;;;;;;;15.80;99.90;;;;;;5093643;27;38323;-54
2022/06/19 10:38:03;;;;;;;;;;;15.80;99.90;;;;;;5093331;27;37252;-55
2022/06/19 10:40:33;;;;;;;;;;;15.90;99.90;;;;;;5093819;27;37126;-55
2022/06/19 10:43:06;;;;;;;;;;;16.00;99.90;;;;;;5094221;27;38603;-55
2022/06/19 10:45:40;;;;;;;;;;;16.10;99.90;;;;;;5094343;27;37763;-55
2022/06/19 10:48:28;;;;;;;;;;;16.20;99.90;;;;;;5094928;27;37953;-55
2022/06/19 10:51:02;;;;;;;;;;;16.30;99.80;;;;;;5094932;28;35030;-55
2022/06/19 10:53:38;;;;;;;;;;;16.30;99.60;;;;;;5094316;27;36520;-54
2022/06/19 10:56:10;;;;;;;;;;;16.30;99.90;;;;;;5094081;27;37768;-53
2022/06/19 10:58:37;;;;;;;;;;;16.30;99.90;;;;;;5094014;27;38604;-55
2022/06/19 11:01:05;;;;;;;;;;;16.20;99.90;;;;;;5094190;27;35990;-54
2022/06/19 11:06:21;;;;;;;;;;;16.10;99.90;;;;;;5094571;28;38272;-55
2022/06/19 11:08:54;;;;;;;;;;;16.10;99.90;;;;;;5093758;27;39241;-54
2022/06/19 11:11:21;;;;;;;;;;;16.10;99.90;;;;;;5093327;27;36233;-55
2022/06/19 11:14:03;;;;;;;;;;;16.10;99.90;;;;;;5094145;27;38905;-55
2022/06/19 11:16:32;;;;;;;;;;;16.10;99.90;;;;;;5093555;27;37685;-55
2022/06/19 11:18:59;;;;;;;;;;;16.00;99.90;;;;;;5093730;27;37441;-55
2022/06/19 11:21:28;;;;;;;;;;;15.90;99.90;;;;;;5093588;27;36939;-54
2022/06/19 11:23:57;;;;;;;;;;;15.90;99.90;;;;;;5093896;27;38552;-55
2022/06/19 11:26:27;;;;;;;;;;;15.80;99.90;;;;;;5093332;27;38479;-55
2022/06/19 11:28:56;;;;;;;;;;;15.80;99.90;;;;;;5093284;27;35653;-55
2022/06/19 11:31:25;;;;;;;;;;;15.80;99.90;;;;;;5094048;27;37310;-55
2022/06/19 11:33:53;;;;;;;;;;;15.70;99.90;;;;;;5093506;27;37646;-54
2022/06/19 11:36:38;;;;;;;;;;;15.60;99.90;;;;;;5093409;27;39181;-55
2022/06/19 11:39:20;;;;;;;;;;;15.60;99.90;;;;;;5093256;27;38339;-55
2022/06/19 11:41:48;;;;;;;;;;;15.60;99.90;;;;;;5092769;28;36027;-54
2022/06/19 11:44:17;;;;;;;;;;;15.60;99.90;;;;;;5093379;27;37406;-55
2022/06/19 11:46:46;;;;;;;;;;;15.50;99.90;;;;;;5093723;27;37646;-55
2022/06/19 11:49:25;;;;;;;;;;;15.60;99.90;;;;;;5093381;28;37275;-52
2022/06/19 11:51:52;;;;;;;;;;;15.60;99.90;;;;;;5093806;27;37349;-55
2022/06/19 11:54:24;;;;;;;;;;;15.60;99.90;;;;;;5092772;27;38667;-54
2022/06/19 11:56:53;;;;;;;;;;;15.60;99.90;;;;;;5093016;28;37774;-54
2022/06/19 11:59:24;;;;;;;;;;;15.60;99.90;;;;;;5092906;27;37674;-54
2022/06/19 12:01:51;;;;;;;;;;;15.60;99.90;;;;;;5093740;28;36632;-54
2022/06/19 12:04:30;;;;;;;;;;;15.70;99.90;;;;;;5093540;27;38613;-54
2022/06/19 12:07:00;;;;;;;;;;;15.70;99.90;;;;;;5093176;27;39004;-54
2022/06/19 12:09:29;;;;;;;;;;;15.70;99.90;;;;;;5093190;28;35652;-54
2022/06/19 12:12:00;;;;;;;;;;;15.70;99.90;;;;;;5092962;27;35258;-55
2022/06/19 12:14:28;;;;;;;;;;;15.70;99.90;;;;;;5092306;27;37560;-55
2022/06/19 12:17:07;;;;;;;;;;;15.60;99.90;;;;;;5093411;27;36668;-54
2022/06/19 12:19:34;;;;;;;;;;;15.60;99.90;;;;;;5092634;28;37113;-55
2022/06/19 12:22:04;;;;;;;;;;;15.50;99.90;;;;;;5093121;27;36684;-55
2022/06/19 12:24:47;;;;;;;;;;;15.50;99.90;;;;;;5092473;27;39664;-53
2022/06/19 12:27:16;;;;;;;;;;;15.60;99.90;;;;;;5093038;27;38510;-55
2022/06/19 12:29:46;;;;;;;;;;;15.70;99.90;;;;;;5093153;27;38006;-54
2022/06/19 12:32:18;;;;;;;;;;;15.80;99.90;;;;;;5092520;27;36339;-55
2022/06/19 12:34:47;;;;;;;;;;;15.90;99.90;;;;;;5092448;27;36600;-54
2022/06/19 12:37:16;;;;;;;;;;;16.00;99.90;;;;;;5093024;27;37618;-54
2022/06/19 12:39:44;;;;;;;;;;;16.10;99.90;;;;;;5092726;27;38683;-55
2022/06/19 12:42:15;;;;;;;;;;;16.30;99.90;;;;;;5093287;28;35753;-54
2022/06/19 12:45:02;;;;;;;;;;;16.50;99.90;;;;;;5092677;27;38375;-55
2022/06/19 12:47:36;;;;;;;;;;;16.70;99.90;;;;;;5088948;27;38642;-55
2022/06/19 12:50:17;;;;;;;;;;;16.80;99.90;;;;;;5093299;27;37043;-55
2022/06/19 12:52:48;;;;;;;;;;;16.80;99.70;;;;;;5092895;27;35159;-55
2022/06/19 12:55:32;;;;;;;;;;;16.80;99.70;;;;;;5092954;27;36352;-55
2022/06/19 12:58:06;;;;;;;;;;;16.80;98.00;;;;;;5095973;27;38478;-55
2022/06/19 13:00:38;;;;;;;;;;;16.80;98.40;;;;;;5094711;28;36173;-54
2022/06/19 13:03:29;;;;;;;;;;;16.80;99.00;;;;;;5096434;27;35141;-55
2022/06/19 13:06:03;;;;;;;;;;;16.80;98.90;;;;;;5096158;27;39146;-55
2022/06/19 13:08:37;;;;;;;;;;;16.80;98.80;;;;;;5096182;28;38657;-55
2022/06/19 13:11:12;;;;;;;;;;;16.80;99.20;;;;;;5095880;27;36042;-55
2022/06/19 13:13:58;;;;;;;;;;;16.90;98.10;;;;;;5096092;27;36910;-55
2022/06/19 13:16:27;;;;;;;;;;;16.90;98.20;;;;;;5095667;27;36485;-55
2022/06/19 13:19:01;;;;;;;;;;;16.90;98.90;;;;;;5095287;27;38046;-55
2022/06/19 13:21:36;;;;;;;;;;;16.90;98.50;;;;;;5095404;27;37128;-55
2022/06/19 13:24:20;;;;;;;;;;;17.00;98.90;;;;;;5095708;27;37629;-55
2022/06/19 13:27:11;;;;;;;;;;;17.10;99.00;;;;;;5095987;27;37681;-55
2022/06/19 13:29:43;;;;;;;;;;;17.20;98.80;;;;;;5095632;27;38142;-54
2022/06/19 13:32:17;;;;;;;;;;;17.30;98.10;;;;;;5095074;27;35796;-55
2022/06/19 13:34:49;;;;;;;;;;;17.30;97.70;;;;;;5095268;27;37848;-55
2022/06/19 13:37:24;;;;;;;;;;;17.30;98.10;;;;;;5095682;27;36562;-55
2022/06/19 13:39:56;;;;;;;;;;;17.30;97.00;;;;;;5095327;27;37776;-55
2022/06/19 13:42:31;;;;;;;;;;;17.30;97.80;;;;;;5095640;27;37754;-55
2022/06/19 13:45:03;;;;;;;;;;;17.30;97.40;;;;;;5094841;27;37321;-56
2022/06/19 13:47:33;;;;;;;;;;;17.30;95.70;;;;;;5095266;27;37923;-55
2022/06/19 13:50:03;;;;;;;;;;;17.20;94.00;;;;;;5095167;27;37874;-55
2022/06/19 13:52:37;;;;;;;;;;;17.20;94.40;;;;;;5094712;27;37841;-55
2022/06/19 13:55:12;;;;;;;;;;;17.10;95.20;;;;;;5095506;27;36273;-55
2022/06/19 13:57:42;;;;;;;;;;;17.10;95.40;;;;;;5095098;27;38372;-55
2022/06/19 14:00:27;;;;;;;;;;;17.10;95.80;;;;;;5094539;27;36833;-57
2022/06/19 14:03:13;;;;;;;;;;;17.10;94.90;;;;;;5095032;27;37081;-55
2022/06/19 14:05:41;;;;;;;;;;;17.10;95.00;;;;;;5095151;28;36457;-55
2022/06/19 14:08:12;;;;;;;;;;;17.10;95.60;;;;;;5095034;27;36422;-55
2022/06/19 14:10:42;;;;;;;;;;;17.20;95.30;;;;;;5094461;27;36604;-55
2022/06/19 14:13:12;;;;;;;;;;;17.20;95.90;;;;;;5095423;27;37791;-55
2022/06/19 14:15:44;;;;;;;;;;;17.10;96.10;;;;;;5094778;27;35236;-55
2022/06/19 14:18:14;;;;;;;;;;;17.10;95.70;;;;;;5095503;27;37415;-55
2022/06/19 14:20:49;;;;;;;;;;;17.10;95.50;;;;;;5095115;27;38536;-55
2022/06/19 14:23:21;;;;;;;;;;;17.10;95.20;;;;;;5095001;27;39082;-55
2022/06/19 14:25:52;;;;;;;;;;;17.10;96.00;;;;;;5094542;27;37261;-55
2022/06/19 14:28:20;;;;;;;;;;;17.10;95.50;;;;;;5094985;27;38954;-55
2022/06/19 14:30:49;;;;;;;;;;;17.10;95.90;;;;;;5094660;27;38248;-55
2022/06/19 14:33:33;;;;;;;;;;;17.10;95.30;;;;;;5094389;27;38786;-54
2022/06/19 14:36:06;;;;;;;;;;;17.10;94.90;;;;;;5094448;27;35177;-55
2022/06/19 14:38:35;;;;;;;;;;;17.10;95.80;;;;;;5095024;27;37404;-55